Time;durP1;ratioP1;P1;durP2;ratioP2;P2;SDS_P1;SDS_P2;PMS_P1;PMS_P2;Temp;Humidity;BMP_temperature;BMP_pressure;BME280_temperature;BME280_humidity;BME280_pressure;Samples;Min_cycle;Max_cycle;Signal;HPM_P1;HPM_P2
2023/09/13 00:04:15;;;;;;;0.00;0.00;;;;;;;25.27;100.00;101167.09;10455978;28;20051;-77
2023/09/13 00:09:18;;;;;;;1.08;0.10;;;;;;;25.23;100.00;101175.97;10456566;28;20084;-76
2023/09/13 00:14:19;;;;;;;0.00;0.00;;;;;;;24.59;100.00;101158.53;10439523;28;20067;-77
2023/09/13 00:19:21;;;;;;;0.00;0.00;;;;;;;24.58;100.00;101156.81;10455548;28;20077;-77
2023/09/13 00:24:24;;;;;;;0.10;0.10;;;;;;;25.06;100.00;101168.59;10454985;28;20045;-76
2023/09/13 00:29:25;;;;;;;0.03;0.03;;;;;;;24.35;100.00;101142.53;10445068;28;20049;-75
2023/09/13 00:34:27;;;;;;;0.10;0.10;;;;;;;25.23;100.00;101160.16;10455369;28;20056;-76
2023/09/13 00:39:29;;;;;;;0.00;0.00;;;;;;;24.48;100.00;101171.13;10444362;28;20103;-76
2023/09/13 00:44:31;;;;;;;0.20;0.20;;;;;;;24.92;100.00;101162.91;10438524;28;20045;-75
2023/09/13 00:49:33;;;;;;;0.10;0.03;;;;;;;24.26;100.00;101153.31;10436282;28;20045;-77
2023/09/13 00:54:35;;;;;;;0.00;0.00;;;;;;;24.18;100.00;101143.00;10453372;28;20049;-76
2023/09/13 00:59:37;;;;;;;0.00;0.00;;;;;;;24.91;100.00;101169.91;10451275;28;20052;-76
2023/09/13 01:04:39;;;;;;;0.00;0.00;;;;;;;24.73;100.00;101175.75;10436249;28;20064;-75
2023/09/13 01:09:40;;;;;;;0.10;0.10;;;;;;;24.77;100.00;101166.84;10449212;28;20148;-75
2023/09/13 01:14:43;;;;;;;1.10;0.32;;;;;;;23.48;100.00;101135.13;10428852;28;20049;-75
2023/09/13 01:19:54;;;;;;;0.20;0.20;;;;;;;23.46;100.00;101127.25;10425800;28;20140;-75
2023/09/13 01:25:21;;;;;;;0.08;0.08;;;;;;;23.66;100.00;101131.19;10452268;28;20657;-75
2023/09/13 01:30:23;;;;;;;1.23;0.10;;;;;;;24.67;100.00;101159.22;10437558;28;20488;-75
2023/09/13 01:35:25;;;;;;;0.68;0.40;;;;;;;24.71;100.00;101152.09;10451475;28;20045;-75
2023/09/13 01:40:32;;;;;;;0.03;0.03;;;;;;;25.16;100.00;101166.53;10431129;28;20055;-77
2023/09/13 01:45:34;;;;;;;0.00;0.00;;;;;;;24.08;100.00;101146.78;10449713;28;20133;-75
2023/09/13 01:50:38;;;;;;;0.00;0.00;;;;;;;24.56;100.00;101148.09;10428622;28;20056;-75
2023/09/13 01:55:40;;;;;;;0.13;0.10;;;;;;;24.99;100.00;101178.47;10449941;28;20063;-75
2023/09/13 02:00:42;;;;;;;1.33;1.13;;;;;;;24.59;100.00;101174.34;10433798;28;20049;-75
2023/09/13 02:05:43;;;;;;;0.00;0.00;;;;;;;24.71;100.00;101168.75;10429523;28;20488;-75
2023/09/13 02:10:48;;;;;;;0.20;0.20;;;;;;;24.88;100.00;101180.56;10433615;28;20168;-75
2023/09/13 02:15:49;;;;;;;0.00;0.00;;;;;;;24.76;100.00;101180.94;10433240;28;20564;-75
2023/09/13 02:20:52;;;;;;;0.65;0.20;;;;;;;24.97;100.00;101185.56;10449816;28;20563;-75
2023/09/13 02:25:54;;;;;;;0.00;0.00;;;;;;;25.19;100.00;101203.38;10448685;28;20055;-76
2023/09/13 02:30:56;;;;;;;0.10;0.10;;;;;;;25.21;100.00;101201.53;10428453;28;20049;-75
2023/09/13 02:35:58;;;;;;;0.00;0.00;;;;;;;25.01;100.00;101196.88;10446365;28;20060;-75
2023/09/13 02:40:59;;;;;;;0.77;0.20;;;;;;;25.16;100.00;101196.44;10432445;28;20053;-76
2023/09/13 02:46:01;;;;;;;0.10;0.00;;;;;;;24.19;100.00;101178.94;10433297;28;20057;-75
2023/09/13 02:51:03;;;;;;;0.03;0.00;;;;;;;24.77;100.00;101193.19;10448163;28;20071;-76
2023/09/13 02:56:05;;;;;;;0.00;0.00;;;;;;;24.97;100.00;101198.75;10448476;28;20518;-75
2023/09/13 03:01:10;;;;;;;0.00;0.00;;;;;;;24.80;100.00;101193.94;10451096;28;20043;-75
2023/09/13 03:06:15;;;;;;;0.10;0.00;;;;;;;25.67;100.00;101212.44;10439021;28;20080;-75
2023/09/13 03:11:18;;;;;;;0.08;0.05;;;;;;;25.24;100.00;101212.00;10451435;28;20072;-75
2023/09/13 03:16:22;;;;;;;0.00;0.00;;;;;;;25.43;100.00;101220.22;10455891;28;20052;-76
2023/09/13 03:21:24;;;;;;;0.20;0.10;;;;;;;25.31;100.00;101216.16;10418225;28;20052;-77
2023/09/13 03:26:27;;;;;;;0.00;0.00;;;;;;;24.84;100.00;101194.72;10438773;28;20080;-76
2023/09/13 03:31:31;;;;;;;0.00;0.00;;;;;;;24.61;100.00;101192.72;10449445;28;20044;-75
2023/09/13 03:36:38;;;;;;;0.00;0.00;;;;;;;25.34;100.00;101216.09;10443721;28;20045;-75
2023/09/13 03:41:39;;;;;;;0.00;0.00;;;;;;;24.63;100.00;101194.41;10432798;28;20467;-75
2023/09/13 03:46:43;;;;;;;0.00;0.00;;;;;;;25.35;100.00;101207.22;10448475;28;20084;-75
2023/09/13 03:51:45;;;;;;;0.57;0.20;;;;;;;24.97;100.00;101201.38;10442573;28;20072;-75
2023/09/13 03:56:46;;;;;;;0.00;0.00;;;;;;;24.96;100.00;101215.47;10452481;28;20484;-75
2023/09/13 04:01:48;;;;;;;0.00;0.00;;;;;;;24.69;100.00;101202.16;10453927;28;20045;-75
2023/09/13 04:06:50;;;;;;;0.00;0.00;;;;;;;24.70;100.00;101208.31;10453565;28;20053;-75
2023/09/13 04:11:52;;;;;;;0.20;0.15;;;;;;;24.77;100.00;101201.97;10442408;28;20041;-75
2023/09/13 04:16:54;;;;;;;0.10;0.10;;;;;;;24.67;100.00;101193.47;10435459;28;20400;-75
2023/09/13 04:21:56;;;;;;;0.00;0.00;;;;;;;24.76;100.00;101202.00;10439701;28;20037;-75
2023/09/13 04:26:58;;;;;;;0.00;0.00;;;;;;;24.60;100.00;101199.78;10431534;28;20303;-75
2023/09/13 04:31:59;;;;;;;0.00;0.00;;;;;;;24.70;100.00;101197.78;10452127;28;20041;-75
2023/09/13 04:37:03;;;;;;;0.00;0.00;;;;;;;24.75;100.00;101202.91;10430310;28;20068;-75
2023/09/13 04:42:06;;;;;;;0.00;0.00;;;;;;;23.29;100.00;101169.72;10452137;28;20045;-75
2023/09/13 04:47:08;;;;;;;0.00;0.00;;;;;;;22.87;100.00;101154.84;10435043;28;20447;-75
2023/09/13 04:52:12;;;;;;;0.40;0.32;;;;;;;23.17;100.00;101147.22;10450067;28;20045;-76
2023/09/13 04:57:15;;;;;;;0.77;0.63;;;;;;;23.12;100.00;101139.41;10450156;28;20044;-75
2023/09/13 05:02:17;;;;;;;1.10;0.40;;;;;;;23.63;100.00;101145.28;10434634;28;20041;-75
2023/09/13 05:07:21;;;;;;;0.47;0.43;;;;;;;23.38;100.00;101151.13;10437917;28;20450;-75
2023/09/13 05:12:22;;;;;;;0.32;0.13;;;;;;;23.73;100.00;101178.31;10442639;28;20167;-75
2023/09/13 05:17:24;;;;;;;3.47;0.43;;;;;;;24.10;100.00;101196.72;10441669;28;20053;-75
2023/09/13 05:22:25;;;;;;;0.43;0.40;;;;;;;23.66;100.00;101176.75;10433165;28;20076;-75
2023/09/13 05:27:27;;;;;;;0.93;0.43;;;;;;;22.91;100.00;101143.41;10437586;28;20050;-75
2023/09/13 05:32:29;;;;;;;0.40;0.30;;;;;;;23.38;100.00;101151.13;10441247;28;20053;-75
2023/09/13 05:37:31;;;;;;;0.65;0.45;;;;;;;23.47;100.00;101157.06;10442144;28;20072;-75
2023/09/13 05:42:34;;;;;;;1.30;1.10;;;;;;;23.70;100.00;101152.09;10448296;28;20045;-76
2023/09/13 05:47:35;;;;;;;0.55;0.55;;;;;;;23.61;100.00;101157.59;10448013;28;20045;-76
2023/09/13 05:52:39;;;;;;;2.28;0.65;;;;;;;23.56;100.00;101143.69;10449351;28;20052;-76
2023/09/13 05:57:41;;;;;;;1.73;1.30;;;;;;;23.61;100.00;101149.69;10436001;28;20041;-75
2023/09/13 06:02:43;;;;;;;2.05;1.52;;;;;;;23.59;100.00;101155.00;10448751;28;20053;-76
2023/09/13 06:07:44;;;;;;;1.65;0.93;;;;;;;24.07;100.00;101177.50;10431771;28;20072;-75
2023/09/13 06:12:46;;;;;;;0.50;0.50;;;;;;;24.29;100.00;101195.34;10444905;28;20480;-76
2023/09/13 06:17:48;;;;;;;0.85;0.68;;;;;;;24.53;100.00;101219.31;10446994;28;20056;-77
2023/09/13 06:22:49;;;;;;;1.33;1.17;;;;;;;24.57;100.00;101228.84;10447075;28;20071;-75
2023/09/13 06:27:51;;;;;;;2.05;1.05;;;;;;;24.64;100.00;101225.13;10447003;28;20060;-76
2023/09/13 06:32:53;;;;;;;2.67;1.25;;;;;;;24.56;100.00;101237.63;10423541;28;20045;-76
2023/09/13 06:38:13;;;;;;;1.45;1.33;;;;;;;23.96;100.00;101237.44;10439750;28;20052;-76
2023/09/13 06:43:18;;;;;;;1.70;0.95;;;;;;;24.35;100.00;101261.00;10445736;28;20124;-76
2023/09/13 06:48:39;;;;;;;4.65;1.83;;;;;;;24.68;100.00;101268.97;10450983;28;20049;-76
2023/09/13 06:53:43;;;;;;;1.33;1.02;;;;;;;24.07;100.00;101261.72;10432424;28;20048;-75
2023/09/13 06:58:48;;;;;;;1.70;0.80;;;;;;;24.40;100.00;101271.44;10434376;28;20049;-76
2023/09/13 07:03:52;;;;;;;1.17;1.08;;;;;;;24.43;100.00;101273.13;10445652;28;20148;-76
2023/09/13 07:09:00;;;;;;;2.58;0.90;;;;;;;24.63;100.00;101291.88;10424256;28;20041;-76
2023/09/13 07:14:03;;;;;;;1.52;0.95;;;;;;;24.66;100.00;101290.94;10443489;28;20080;-75
2023/09/13 07:19:04;;;;;;;1.33;1.20;;;;;;;24.57;100.00;101297.31;10430634;28;20053;-75
2023/09/13 07:24:06;;;;;;;2.90;1.13;;;;;;;24.81;100.00;101300.22;10446490;28;20025;-76
2023/09/13 07:29:08;;;;;;;1.63;1.23;;;;;;;21.77;100.00;101319.50;10432188;28;20440;-75
2023/09/13 07:34:09;;;;;;;0.30;0.20;;;;;;;20.45;100.00;101306.94;10441129;28;20206;-75
2023/09/13 07:39:12;;;;;;;0.10;0.10;;;;;;;20.09;100.00;101350.84;10419078;28;20053;-75
2023/09/13 07:44:13;;;;;;;0.03;0.03;;;;;;;19.83;100.00;101378.00;10441069;28;20057;-75
2023/09/13 07:49:15;;;;;;;0.00;0.00;;;;;;;19.88;100.00;101384.09;10433141;28;20544;-75
2023/09/13 07:54:17;;;;;;;0.08;0.03;;;;;;;20.13;100.00;101404.88;10433789;28;20048;-74
2023/09/13 07:59:20;;;;;;;0.10;0.05;;;;;;;20.04;100.00;101415.41;10433150;28;20061;-74
2023/09/13 08:04:24;;;;;;;0.00;0.00;;;;;;;20.22;100.00;101441.44;10433904;28;20052;-75
2023/09/13 08:09:26;;;;;;;0.00;0.00;;;;;;;20.22;100.00;101438.81;10437961;28;20068;-74
2023/09/13 08:14:28;;;;;;;0.00;0.00;;;;;;;20.29;100.00;101450.97;10446154;28;20048;-75
2023/09/13 08:19:29;;;;;;;0.00;0.00;;;;;;;20.57;100.00;101461.31;10449776;28;20518;-74
2023/09/13 08:24:32;;;;;;;0.00;0.00;;;;;;;20.74;100.00;101474.28;10436457;28;20077;-75
2023/09/13 08:29:34;;;;;;;0.10;0.10;;;;;;;21.17;100.00;101499.28;10446736;28;20455;-75
2023/09/13 08:34:36;;;;;;;0.00;0.00;;;;;;;21.39;100.00;101499.94;10435562;28;20514;-74
2023/09/13 08:39:38;;;;;;;0.00;0.00;;;;;;;21.33;100.00;101525.34;10423380;28;20103;-74
2023/09/13 08:44:40;;;;;;;0.00;0.00;;;;;;;21.66;100.00;101520.69;10439434;28;20061;-75
2023/09/13 08:49:45;;;;;;;1.38;0.80;;;;;;;21.36;100.00;101535.78;10454403;28;20835;-75
2023/09/13 08:54:49;;;;;;;0.00;0.00;;;;;;;22.34;100.00;101544.34;10446416;28;20130;-74
2023/09/13 08:59:59;;;;;;;0.17;0.00;;;;;;;22.52;100.00;101559.94;10433458;28;20101;-74
2023/09/13 09:05:04;;;;;;;0.25;0.15;;;;;;;22.65;100.00;101569.38;10446206;28;20512;-74
2023/09/13 09:10:11;;;;;;;0.00;0.00;;;;;;;20.41;100.00;101583.50;10431816;28;20052;-75
2023/09/13 09:15:14;;;;;;;0.00;0.00;;;;;;;21.16;100.00;101597.09;10449758;28;20057;-74
2023/09/13 09:20:17;;;;;;;0.00;0.00;;;;;;;20.53;100.00;101600.91;10443921;28;20060;-75
2023/09/13 09:25:20;;;;;;;0.50;0.13;;;;;;;20.38;100.00;101620.19;10449185;28;20439;-74
2023/09/13 09:30:32;;;;;;;0.22;0.20;;;;;;;21.75;100.00;101635.97;10431102;28;20407;-75
2023/09/13 09:35:36;;;;;;;0.32;0.32;;;;;;;23.10;100.00;101639.66;10443913;28;20056;-74
2023/09/13 09:40:38;;;;;;;0.00;0.00;;;;;;;22.41;100.00;101650.19;10442898;28;20049;-75
2023/09/13 09:45:40;;;;;;;0.13;0.00;;;;;;;22.53;100.00;101653.53;10431037;28;20084;-75
2023/09/13 09:50:46;;;;;;;0.15;0.10;;;;;;;23.58;100.00;101652.09;10446635;28;20088;-74
2023/09/13 09:55:48;;;;;;;0.00;0.00;;;;;;;24.65;100.00;101647.47;10431130;28;20049;-74
2023/09/13 10:00:53;;;;;;;0.00;0.00;;;;;;;24.41;100.00;101620.78;10447276;28;20511;-75
2023/09/13 10:06:03;;;;;;;2.13;0.00;;;;;;;23.51;100.00;101629.41;10430883;28;20103;-75
2023/09/13 10:11:11;;;;;;;0.00;0.00;;;;;;;24.30;100.00;101633.28;10452174;28;20468;-75
2023/09/13 10:16:17;;;;;;;0.00;0.00;;;;;;;23.18;100.00;101681.66;10432756;28;20102;-74
2023/09/13 10:21:28;;;;;;;0.00;0.00;;;;;;;23.73;100.00;101680.75;10444902;28;20049;-75
2023/09/13 10:26:31;;;;;;;0.00;0.00;;;;;;;24.67;100.00;101696.66;10448156;28;20057;-74
2023/09/13 10:31:39;;;;;;;0.00;0.00;;;;;;;25.62;100.00;101690.16;10447367;28;20043;-74
2023/09/13 10:36:47;;;;;;;0.00;0.00;;;;;;;25.05;100.00;101694.09;10445314;28;20037;-75
2023/09/13 10:42:03;;;;;;;0.47;0.20;;;;;;;26.28;100.00;101698.16;10433987;28;20049;-75
2023/09/13 10:47:06;;;;;;;0.00;0.00;;;;;;;24.91;100.00;101707.56;10431020;28;20052;-75
2023/09/13 10:52:09;;;;;;;0.22;0.10;;;;;;;24.93;100.00;101710.19;10447527;28;20045;-75
2023/09/13 10:57:11;;;;;;;0.00;0.00;;;;;;;23.40;100.00;101722.50;10441717;28;20052;-74
2023/09/13 11:02:13;;;;;;;0.38;0.32;;;;;;;23.94;100.00;101738.34;10421780;28;20656;-74
2023/09/13 11:07:15;;;;;;;0.08;0.08;;;;;;;22.97;100.00;101744.09;10450928;28;20055;-75
2023/09/13 11:12:17;;;;;;;0.20;0.20;;;;;;;22.88;100.00;101755.56;10424055;28;20052;-75
2023/09/13 11:17:37;;;;;;;0.00;0.00;;;;;;;23.31;100.00;101756.81;10441606;28;20545;-74
2023/09/13 11:22:39;;;;;;;0.00;0.00;;;;;;;22.93;100.00;101768.66;10447189;28;20144;-74
2023/09/13 11:27:41;;;;;;;0.00;0.00;;;;;;;23.58;100.00;101784.47;10427331;28;20127;-74
2023/09/13 11:32:43;;;;;;;0.20;0.20;;;;;;;23.14;100.00;101784.16;10454191;28;20408;-74
2023/09/13 11:37:46;;;;;;;0.45;0.20;;;;;;;23.07;100.00;101793.00;10443486;28;20053;-75
2023/09/13 11:42:52;;;;;;;0.10;0.08;;;;;;;23.05;100.00;101800.03;10437340;28;20041;-75
2023/09/13 11:48:07;;;;;;;0.05;0.00;;;;;;;23.25;100.00;101806.84;10457868;28;20045;-74
2023/09/13 11:53:16;;;;;;;0.00;0.00;;;;;;;24.18;100.00;101816.91;10452365;28;20051;-74
2023/09/13 11:58:29;;;;;;;0.03;0.03;;;;;;;22.26;100.00;101834.94;10437327;28;20052;-74
2023/09/13 12:03:45;;;;;;;0.68;0.22;;;;;;;21.99;100.00;101841.28;10465103;28;20059;-74
2023/09/13 12:08:55;;;;;;;0.00;0.00;;;;;;;23.17;100.00;101848.97;10451642;28;20488;-75
2023/09/13 12:14:01;;;;;;;0.10;0.00;;;;;;;23.28;100.00;101854.09;10435755;28;20041;-74
2023/09/13 12:19:13;;;;;;;0.00;0.00;;;;;;;23.26;100.00;101855.91;10443780;28;20052;-74
2023/09/13 12:24:19;;;;;;;0.10;0.10;;;;;;;22.86;100.00;101856.31;10426604;28;20129;-75
2023/09/13 12:29:21;;;;;;;0.20;0.15;;;;;;;23.17;100.00;101862.13;10448722;28;20052;-75
2023/09/13 12:34:24;;;;;;;0.00;0.00;;;;;;;23.64;100.00;101862.44;10454327;28;20045;-74
2023/09/13 12:39:25;;;;;;;0.15;0.00;;;;;;;24.24;100.00;101868.59;10443820;28;20071;-75
2023/09/13 12:44:27;;;;;;;0.28;0.00;;;;;;;23.34;100.00;101869.84;10448684;28;20494;-75
2023/09/13 12:49:29;;;;;;;0.00;0.00;;;;;;;23.84;100.00;101877.91;10446712;28;20056;-74
2023/09/13 12:54:35;;;;;;;1.10;0.35;;;;;;;23.53;100.00;101880.09;10433835;28;20085;-75
2023/09/13 12:59:44;;;;;;;0.20;0.00;;;;;;;25.27;100.00;101873.81;10449487;28;20052;-73
2023/09/13 13:04:46;;;;;;;;;;;;;;;24.15;100.00;101879.28;10450373;28;20045;-75
2023/09/13 13:09:52;;;;;;;0.00;0.00;;;;;;;23.47;100.00;101890.72;10450529;28;19921;-74
2023/09/13 13:14:54;;;;;;;0.17;0.15;;;;;;;22.91;100.00;101907.94;10448658;28;20059;-74
2023/09/13 13:19:56;;;;;;;0.35;0.25;;;;;;;22.02;100.00;101926.09;10448297;28;20049;-74
2023/09/13 13:24:58;;;;;;;0.00;0.00;;;;;;;22.26;100.00;101928.56;10426450;28;20044;-74
2023/09/13 13:30:01;;;;;;;0.00;0.00;;;;;;;21.82;100.00;101923.56;10431789;28;20068;-75
2023/09/13 13:35:04;;;;;;;0.10;0.00;;;;;;;21.97;100.00;101932.22;10442467;28;20049;-74
2023/09/13 13:40:07;;;;;;;1.00;0.20;;;;;;;21.92;100.00;101928.78;10449037;28;20403;-74
2023/09/13 13:45:10;;;;;;;1.23;0.55;;;;;;;23.69;100.00;101933.38;10424524;28;20052;-74
2023/09/13 13:50:12;;;;;;;0.00;0.00;;;;;;;22.95;100.00;101930.66;10448391;28;20053;-74
2023/09/13 13:55:14;;;;;;;0.00;0.00;;;;;;;24.40;100.00;101928.03;10447997;28;20037;-75
2023/09/13 14:00:16;;;;;;;0.00;0.00;;;;;;;24.70;100.00;101922.31;10447473;28;20052;-74
2023/09/13 14:05:17;;;;;;;0.00;0.00;;;;;;;23.44;100.00;101934.56;10447325;28;20037;-76
2023/09/13 14:10:19;;;;;;;0.00;0.00;;;;;;;23.83;100.00;101936.69;10447443;28;20049;-75
2023/09/13 14:15:21;;;;;;;0.20;0.13;;;;;;;22.81;100.00;101949.19;10421444;28;20077;-74
2023/09/13 14:20:22;;;;;;;0.00;0.00;;;;;;;22.68;100.00;101952.78;10445378;28;20073;-74
2023/09/13 14:25:25;;;;;;;0.43;0.03;;;;;;;23.32;100.00;101955.75;10441128;28;20072;-75
2023/09/13 14:30:27;;;;;;;0.00;0.00;;;;;;;23.82;100.00;101949.88;10444230;28;20052;-75
2023/09/13 14:35:30;;;;;;;0.57;0.10;;;;;;;22.81;100.00;101943.94;10447777;28;20045;-75
2023/09/13 14:40:31;;;;;;;0.00;0.00;;;;;;;22.95;100.00;101945.56;10430672;28;20077;-75
2023/09/13 14:45:33;;;;;;;0.00;0.00;;;;;;;23.30;100.00;101947.00;10436084;28;20127;-75
2023/09/13 14:50:35;;;;;;;0.47;0.35;;;;;;;24.56;100.00;101938.31;10446624;28;20065;-75
2023/09/13 14:55:36;;;;;;;0.75;0.20;;;;;;;24.50;100.00;101949.81;10448874;28;20044;-74
2023/09/13 15:00:38;;;;;;;0.00;0.00;;;;;;;24.40;100.00;101943.81;10447772;28;20055;-75
2023/09/13 15:05:39;;;;;;;0.00;0.00;;;;;;;24.57;100.00;101945.31;10454173;28;20071;-75
2023/09/13 15:10:43;;;;;;;0.20;0.13;;;;;;;24.59;100.00;101947.91;10451831;28;20041;-74
2023/09/13 15:15:47;;;;;;;0.00;0.00;;;;;;;24.28;100.00;101944.03;10449322;28;20470;-75
2023/09/13 15:20:49;;;;;;;0.00;0.00;;;;;;;23.63;100.00;101946.63;10436539;28;20121;-76
2023/09/13 15:25:50;;;;;;;0.00;0.00;;;;;;;24.02;100.00;101940.00;10452436;28;20429;-75
2023/09/13 15:30:52;;;;;;;0.00;0.00;;;;;;;24.30;100.00;101952.78;10441604;28;20492;-75
2023/09/13 15:35:54;;;;;;;0.00;0.00;;;;;;;24.33;100.00;101957.13;10435032;28;20467;-75
2023/09/13 15:40:55;;;;;;;0.22;0.10;;;;;;;23.44;100.00;101955.59;10430772;28;20046;-76
2023/09/13 15:45:57;;;;;;;0.00;0.00;;;;;;;24.08;100.00;101953.09;10426929;28;20037;-75
2023/09/13 15:50:59;;;;;;;0.00;0.00;;;;;;;23.37;100.00;101953.06;10423594;28;20049;-74
2023/09/13 15:56:01;;;;;;;0.05;0.03;;;;;;;23.84;100.00;101964.75;10441099;28;20045;-75
2023/09/13 16:01:02;;;;;;;0.00;0.00;;;;;;;23.87;100.00;101958.59;10452256;28;20041;-75
2023/09/13 16:06:04;;;;;;;0.10;0.10;;;;;;;23.90;100.00;101969.09;10445335;28;20065;-74
2023/09/13 16:11:06;;;;;;;0.08;0.00;;;;;;;23.49;100.00;101962.59;10446852;28;20037;-75
2023/09/13 16:16:07;;;;;;;0.10;0.10;;;;;;;23.55;100.00;101963.34;10435069;28;20507;-76
2023/09/13 16:21:09;;;;;;;0.00;0.00;;;;;;;23.50;100.00;101962.56;10433912;28;20495;-74
2023/09/13 16:26:11;;;;;;;0.32;0.30;;;;;;;23.48;100.00;101966.94;10436314;28;20037;-75
2023/09/13 16:31:13;;;;;;;0.10;0.10;;;;;;;23.94;100.00;101959.41;10451125;28;20519;-75
2023/09/13 16:36:15;;;;;;;0.20;0.10;;;;;;;23.90;100.00;101967.31;10450462;28;20072;-75
2023/09/13 16:41:16;;;;;;;0.20;0.20;;;;;;;23.73;100.00;101970.16;10447328;28;20084;-75
2023/09/13 16:46:18;;;;;;;0.00;0.00;;;;;;;24.07;100.00;101977.66;10459457;28;20044;-76
2023/09/13 16:51:20;;;;;;;0.00;0.00;;;;;;;23.87;100.00;101977.00;10433979;28;20055;-75
2023/09/13 16:56:22;;;;;;;1.08;0.20;;;;;;;23.47;100.00;101985.38;10449922;28;20052;-75
2023/09/13 17:01:24;;;;;;;0.00;0.00;;;;;;;23.49;100.00;101979.22;10442542;28;20052;-75
2023/09/13 17:06:25;;;;;;;0.00;0.00;;;;;;;23.56;100.00;101982.66;10449799;28;20238;-75
2023/09/13 17:11:29;;;;;;;0.00;0.00;;;;;;;23.76;100.00;101985.91;10449975;28;20045;-75
2023/09/13 17:16:31;;;;;;;1.55;0.00;;;;;;;24.13;100.00;101999.53;10448371;28;20045;-75
2023/09/13 17:21:33;;;;;;;0.00;0.00;;;;;;;23.09;100.00;101998.88;10445513;28;20044;-74
2023/09/13 17:26:34;;;;;;;0.88;0.30;;;;;;;22.35;100.00;102015.13;10425274;28;20403;-74
2023/09/13 17:31:36;;;;;;;0.00;0.00;;;;;;;21.97;100.00;102017.03;10431629;28;20045;-75
2023/09/13 17:36:41;;;;;;;0.17;0.03;;;;;;;21.78;100.00;102026.72;10428691;28;20044;-74
2023/09/13 17:41:43;;;;;;;0.00;0.00;;;;;;;21.75;100.00;102024.13;10446343;28;20070;-75
2023/09/13 17:46:45;;;;;;;0.10;0.10;;;;;;;21.48;100.00;102033.75;10446934;28;20048;-75
2023/09/13 17:51:46;;;;;;;0.08;0.03;;;;;;;21.41;100.00;102037.28;10425302;28;20150;-75
2023/09/13 17:56:48;;;;;;;0.00;0.00;;;;;;;21.47;100.00;102037.28;10426970;28;20060;-76
2023/09/13 18:01:50;;;;;;;0.00;0.00;;;;;;;21.36;100.00;102049.50;10424854;28;20083;-75
2023/09/13 18:06:51;;;;;;;0.13;0.13;;;;;;;21.81;100.00;102052.97;10438840;28;20381;-74
2023/09/13 18:11:54;;;;;;;0.28;0.00;;;;;;;21.29;100.00;102067.00;10448497;28;20049;-75
2023/09/13 18:16:56;;;;;;;0.22;0.20;;;;;;;21.43;100.00;102064.38;10428386;28;20469;-75
2023/09/13 18:21:58;;;;;;;0.22;0.00;;;;;;;21.84;100.00;102078.31;10432335;28;20048;-75
2023/09/13 18:27:00;;;;;;;0.10;0.10;;;;;;;21.35;100.00;102081.84;10433523;28;20044;-75
2023/09/13 18:32:02;;;;;;;0.10;0.03;;;;;;;21.40;100.00;102086.22;10427531;28;20516;-74
2023/09/13 18:37:04;;;;;;;0.10;0.10;;;;;;;21.77;100.00;102082.72;10434747;28;20083;-75
2023/09/13 18:42:05;;;;;;;0.10;0.10;;;;;;;21.92;100.00;102096.69;10445249;28;20412;-74
2023/09/13 18:47:07;;;;;;;0.10;0.03;;;;;;;21.47;100.00;102101.94;10451849;28;20041;-75
2023/09/13 18:52:09;;;;;;;0.00;0.00;;;;;;;21.59;100.00;102111.56;10460120;28;20048;-74
2023/09/13 18:57:10;;;;;;;0.00;0.00;;;;;;;21.66;100.00;102108.97;10439097;28;20056;-75
2023/09/13 19:02:12;;;;;;;2.30;0.45;;;;;;;21.68;100.00;102114.19;10446683;28;20060;-74
2023/09/13 19:07:14;;;;;;;0.03;0.03;;;;;;;21.94;100.00;102122.03;10432434;28;20048;-74
2023/09/13 19:12:15;;;;;;;0.00;0.00;;;;;;;22.47;100.00;102133.25;10452855;28;20056;-74
2023/09/13 19:17:18;;;;;;;0.00;0.00;;;;;;;22.12;100.00;102130.72;10435514;28;20056;-75
2023/09/13 19:22:19;;;;;;;0.00;0.00;;;;;;;22.56;100.00;102136.72;10429893;28;20060;-75
2023/09/13 19:27:21;;;;;;;0.00;0.00;;;;;;;22.33;100.00;102145.53;10425907;28;20390;-75
2023/09/13 19:32:22;;;;;;;0.00;0.00;;;;;;;22.70;100.00;102149.78;10442377;28;20124;-75
2023/09/13 19:37:24;;;;;;;0.22;0.00;;;;;;;21.88;100.00;102148.28;10442928;28;20466;-75
2023/09/13 19:42:27;;;;;;;0.30;0.05;;;;;;;22.49;100.00;102152.50;10431520;28;20064;-75
2023/09/13 19:47:29;;;;;;;0.28;0.10;;;;;;;22.07;100.00;102150.84;10445255;28;20041;-74
2023/09/13 19:52:31;;;;;;;0.00;0.00;;;;;;;22.19;100.00;102149.06;10432314;28;20045;-74
2023/09/13 19:57:32;;;;;;;0.00;0.00;;;;;;;22.24;100.00;102162.19;10423864;28;20056;-75
2023/09/13 20:02:34;;;;;;;0.10;0.00;;;;;;;22.39;100.00;102166.53;10451948;28;20567;-74
2023/09/13 20:07:36;;;;;;;0.00;0.00;;;;;;;22.38;100.00;102164.75;10424613;28;20052;-75
2023/09/13 20:12:39;;;;;;;0.00;0.00;;;;;;;21.95;100.00;102170.09;10448008;28;20447;-75
2023/09/13 20:17:40;;;;;;;0.10;0.10;;;;;;;22.06;100.00;102168.34;10449897;28;20037;-74
2023/09/13 20:22:42;;;;;;;0.00;0.00;;;;;;;21.99;100.00;102174.50;10451846;28;20488;-75
2023/09/13 20:27:44;;;;;;;0.00;0.00;;;;;;;21.72;100.00;102176.25;10418603;28;20045;-75
2023/09/13 20:32:45;;;;;;;0.03;0.03;;;;;;;21.74;100.00;102169.25;10451877;28;20041;-75
2023/09/13 20:37:47;;;;;;;0.15;0.10;;;;;;;21.86;100.00;102165.75;10441163;28;20401;-75
2023/09/13 20:42:48;;;;;;;0.10;0.00;;;;;;;21.16;100.00;102170.06;10419595;28;20045;-75
2023/09/13 20:47:50;;;;;;;0.00;0.00;;;;;;;20.88;100.00;102167.38;10441880;28;20114;-75
2023/09/13 20:52:53;;;;;;;0.00;0.00;;;;;;;20.85;100.00;102168.25;10432443;28;20569;-75
2023/09/13 20:57:55;;;;;;;0.00;0.00;;;;;;;20.96;100.00;102164.81;10449887;28;20044;-75
2023/09/13 21:02:57;;;;;;;0.00;0.00;;;;;;;20.26;100.00;102167.06;10425940;28;20747;-75
2023/09/13 21:07:59;;;;;;;0.00;0.00;;;;;;;20.35;100.00;102164.50;10442964;28;20045;-74
2023/09/13 21:13:03;;;;;;;0.00;0.00;;;;;;;20.37;100.00;102169.75;10445504;28;20071;-75
2023/09/13 21:18:05;;;;;;;0.00;0.00;;;;;;;19.90;100.00;102176.44;10446446;28;20040;-74
2023/09/13 21:23:08;;;;;;;0.00;0.00;;;;;;;20.66;100.00;102176.88;10423141;28;20049;-75
2023/09/13 21:28:09;;;;;;;0.00;0.00;;;;;;;20.16;100.00;102192.31;10441605;28;20055;-75
2023/09/13 21:33:11;;;;;;;0.00;0.00;;;;;;;19.95;100.00;102199.16;10439432;28;20424;-75
2023/09/13 21:38:13;;;;;;;0.28;0.13;;;;;;;19.88;100.00;102201.72;10441956;28;20526;-74
2023/09/13 21:43:15;;;;;;;0.10;0.10;;;;;;;19.54;100.00;102199.66;10424642;28;20068;-75
2023/09/13 21:48:16;;;;;;;0.00;0.00;;;;;;;19.30;100.00;102192.44;10429673;28;20407;-75
2023/09/13 21:53:18;;;;;;;0.00;0.00;;;;;;;19.42;100.00;102202.13;10443388;28;20415;-74
2023/09/13 21:58:20;;;;;;;0.00;0.00;;;;;;;19.25;100.00;102204.59;10442807;28;20114;-75
2023/09/13 22:03:22;;;;;;;0.00;0.00;;;;;;;19.59;100.00;102200.56;10447712;28;20041;-74
2023/09/13 22:08:24;;;;;;;0.00;0.00;;;;;;;19.20;100.00;102206.28;10442734;28;20103;-75
2023/09/13 22:13:26;;;;;;;0.00;0.00;;;;;;;19.19;100.00;102210.63;10451964;28;20049;-74
2023/09/13 22:18:28;;;;;;;0.00;0.00;;;;;;;19.22;100.00;102213.28;10444536;28;20051;-75
2023/09/13 22:23:30;;;;;;;0.28;0.28;;;;;;;19.02;100.00;102203.47;10448699;28;20424;-74
2023/09/13 22:28:32;;;;;;;0.32;0.00;;;;;;;18.69;100.00;102204.78;10438702;28;20037;-75
2023/09/13 22:33:34;;;;;;;0.20;0.20;;;;;;;18.38;100.00;102209.59;10449767;28;20389;-74
2023/09/13 22:38:36;;;;;;;0.00;0.00;;;;;;;18.47;100.00;102214.03;10453559;28;20045;-74
2023/09/13 22:43:38;;;;;;;0.00;0.00;;;;;;;18.58;100.00;102206.34;10456117;28;20045;-75
2023/09/13 22:48:40;;;;;;;0.00;0.00;;;;;;;18.16;100.00;102217.94;10457145;28;20040;-75
2023/09/13 22:53:41;;;;;;;0.00;0.00;;;;;;;18.15;100.00;102216.19;10458592;28;20052;-74
2023/09/13 22:58:43;;;;;;;0.00;0.00;;;;;;;18.29;100.00;102219.88;10440988;28;20400;-75